sensor_id;sensor_type;location;lat;lon;timestamp;pressure;altitude;pressure_sealevel;temperature
65316;BMP280;51920;53.952;10.292;2023-07-20T00:01:31;100761.91;;;14.25
65316;BMP280;51920;53.952;10.292;2023-07-20T00:03:57;100762.69;;;14.25
65316;BMP280;51920;53.952;10.292;2023-07-20T00:06:25;100762.28;;;14.27
65316;BMP280;51920;53.952;10.292;2023-07-20T00:08:53;100760.34;;;14.27
65316;BMP280;51920;53.952;10.292;2023-07-20T00:11:20;100766.19;;;14.26
65316;BMP280;51920;53.952;10.292;2023-07-20T00:13:46;100756.44;;;14.28
65316;BMP280;51920;53.952;10.292;2023-07-20T00:16:13;100752.53;;;14.29
65316;BMP280;51920;53.952;10.292;2023-07-20T00:18:40;100756.81;;;14.30
65316;BMP280;51920;53.952;10.292;2023-07-20T00:21:06;100752.53;;;14.29
65316;BMP280;51920;53.952;10.292;2023-07-20T00:23:33;100744.78;;;14.28
65316;BMP280;51920;53.952;10.292;2023-07-20T00:26:01;100752.16;;;14.27
65316;BMP280;51920;53.952;10.292;2023-07-20T00:28:27;100751.00;;;14.28
65316;BMP280;51920;53.952;10.292;2023-07-20T00:30:56;100739.34;;;14.28
65316;BMP280;51920;53.952;10.292;2023-07-20T00:33:23;100746.28;;;14.32
65316;BMP280;51920;53.952;10.292;2023-07-20T00:35:49;100747.88;;;14.30
65316;BMP280;51920;53.952;10.292;2023-07-20T00:38:16;100748.28;;;14.28
65316;BMP280;51920;53.952;10.292;2023-07-20T00:40:42;100744.75;;;14.31
65316;BMP280;51920;53.952;10.292;2023-07-20T00:43:10;100744.00;;;14.27
65316;BMP280;51920;53.952;10.292;2023-07-20T00:45:37;100744.00;;;14.27
65316;BMP280;51920;53.952;10.292;2023-07-20T00:48:06;100740.13;;;14.25
65316;BMP280;51920;53.952;10.292;2023-07-20T00:50:33;100749.50;;;14.24
65316;BMP280;51920;53.952;10.292;2023-07-20T00:53:02;100743.28;;;14.23
65316;BMP280;51920;53.952;10.292;2023-07-20T00:55:32;100742.09;;;14.24
65316;BMP280;51920;53.952;10.292;2023-07-20T00:58:00;100742.09;;;14.24
65316;BMP280;51920;53.952;10.292;2023-07-20T01:00:27;100743.63;;;14.25
65316;BMP280;51920;53.952;10.292;2023-07-20T01:02:54;100743.59;;;14.29
65316;BMP280;51920;53.952;10.292;2023-07-20T01:05:21;100749.38;;;14.31
65316;BMP280;51920;53.952;10.292;2023-07-20T01:11:38;100753.69;;;14.32
65316;BMP280;51920;53.952;10.292;2023-07-20T01:14:06;100755.28;;;14.26
65316;BMP280;51920;53.952;10.292;2023-07-20T01:16:33;100750.28;;;14.24
65316;BMP280;51920;53.952;10.292;2023-07-20T01:19:00;100755.28;;;14.26
65316;BMP280;51920;53.952;10.292;2023-07-20T01:24:48;100746.34;;;14.25
65316;BMP280;51920;53.952;10.292;2023-07-20T01:30:08;100751.38;;;14.30
65316;BMP280;51920;53.952;10.292;2023-07-20T01:32:40;100743.22;;;14.30
65316;BMP280;51920;53.952;10.292;2023-07-20T01:35:08;100747.88;;;14.30
65316;BMP280;51920;53.952;10.292;2023-07-20T01:37:36;100745.56;;;14.25
65316;BMP280;51920;53.952;10.292;2023-07-20T01:40:04;100749.44;;;14.27
65316;BMP280;51920;53.952;10.292;2023-07-20T01:42:31;100741.66;;;14.26
65316;BMP280;51920;53.952;10.292;2023-07-20T01:44:57;100744.38;;;14.29
65316;BMP280;51920;53.952;10.292;2023-07-20T01:47:24;100746.31;;;14.29
65316;BMP280;51920;53.952;10.292;2023-07-20T01:49:50;100747.50;;;14.28
65316;BMP280;51920;53.952;10.292;2023-07-20T01:52:17;100746.31;;;14.29
65316;BMP280;51920;53.952;10.292;2023-07-20T01:54:44;100758.47;;;14.24
65316;BMP280;51920;53.952;10.292;2023-07-20T01:57:11;100749.06;;;14.25
65316;BMP280;51920;53.952;10.292;2023-07-20T01:59:38;100747.94;;;14.23
65316;BMP280;51920;53.952;10.292;2023-07-20T02:02:04;100748.34;;;14.21
65316;BMP280;51920;53.952;10.292;2023-07-20T02:04:31;100741.78;;;14.15
65316;BMP280;51920;53.952;10.292;2023-07-20T02:06:57;100746.06;;;14.16
65316;BMP280;51920;53.952;10.292;2023-07-20T02:09:24;100745.69;;;14.14
65316;BMP280;51920;53.952;10.292;2023-07-20T02:11:51;100739.88;;;14.12
65316;BMP280;51920;53.952;10.292;2023-07-20T02:14:19;100748.81;;;14.12
65316;BMP280;51920;53.952;10.292;2023-07-20T02:16:46;100754.66;;;14.11
65316;BMP280;51920;53.952;10.292;2023-07-20T02:19:14;100744.94;;;14.10
65316;BMP280;51920;53.952;10.292;2023-07-20T02:21:40;100746.88;;;14.09
65316;BMP280;51920;53.952;10.292;2023-07-20T02:24:07;100742.63;;;14.08
65316;BMP280;51920;53.952;10.292;2023-07-20T02:26:33;100737.94;;;14.09
65316;BMP280;51920;53.952;10.292;2023-07-20T02:29:00;100743.41;;;14.09
65316;BMP280;51920;53.952;10.292;2023-07-20T02:31:27;100736.38;;;14.08
65316;BMP280;51920;53.952;10.292;2023-07-20T02:33:54;100744.56;;;14.08
65316;BMP280;51920;53.952;10.292;2023-07-20T02:36:20;100741.06;;;14.11
65316;BMP280;51920;53.952;10.292;2023-07-20T02:38:47;100729.34;;;14.14
65316;BMP280;51920;53.952;10.292;2023-07-20T02:41:14;100723.88;;;14.14
65316;BMP280;51920;53.952;10.292;2023-07-20T02:43:40;100736.31;;;14.15
65316;BMP280;51920;53.952;10.292;2023-07-20T02:46:07;100742.16;;;14.13
65316;BMP280;51920;53.952;10.292;2023-07-20T02:48:33;100739.78;;;14.19
65316;BMP280;51920;53.952;10.292;2023-07-20T02:51:00;100740.97;;;14.18
65316;BMP280;51920;53.952;10.292;2023-07-20T02:53:28;100743.72;;;14.18
65316;BMP280;51920;53.952;10.292;2023-07-20T02:55:54;100743.72;;;14.18
65316;BMP280;51920;53.952;10.292;2023-07-20T02:58:21;100749.91;;;14.18
65316;BMP280;51920;53.952;10.292;2023-07-20T03:00:47;100752.63;;;14.18
65316;BMP280;51920;53.952;10.292;2023-07-20T03:03:14;100747.59;;;14.17
65316;BMP280;51920;53.952;10.292;2023-07-20T03:05:41;100755.75;;;14.17
65316;BMP280;51920;53.952;10.292;2023-07-20T03:08:08;100748.41;;;14.14
65316;BMP280;51920;53.952;10.292;2023-07-20T03:10:41;100746.44;;;14.18
65316;BMP280;51920;53.952;10.292;2023-07-20T03:13:08;100746.50;;;14.11
65316;BMP280;51920;53.952;10.292;2023-07-20T03:15:35;100754.63;;;14.14
65316;BMP280;51920;53.952;10.292;2023-07-20T03:18:01;100759.31;;;14.14
65316;BMP280;51920;53.952;10.292;2023-07-20T03:20:29;100759.69;;;14.16
65316;BMP280;51920;53.952;10.292;2023-07-20T03:22:56;100760.47;;;14.13
65316;BMP280;51920;53.952;10.292;2023-07-20T03:25:22;100759.69;;;14.16
65316;BMP280;51920;53.952;10.292;2023-07-20T03:27:50;100759.31;;;14.14
65316;BMP280;51920;53.952;10.292;2023-07-20T03:30:17;100753.41;;;14.19
65316;BMP280;51920;53.952;10.292;2023-07-20T03:32:44;100753.03;;;14.17
65316;BMP280;51920;53.952;10.292;2023-07-20T03:35:10;100753.03;;;14.17
65316;BMP280;51920;53.952;10.292;2023-07-20T03:37:38;100753.41;;;14.19
65316;BMP280;51920;53.952;10.292;2023-07-20T03:40:05;100756.97;;;14.16
65316;BMP280;51920;53.952;10.292;2023-07-20T03:42:34;100757.34;;;14.14
65316;BMP280;51920;53.952;10.292;2023-07-20T03:45:01;100756.19;;;14.15
65316;BMP280;51920;53.952;10.292;2023-07-20T03:47:30;100751.13;;;14.17
65316;BMP280;51920;53.952;10.292;2023-07-20T03:49:57;100755.75;;;14.17
65316;BMP280;51920;53.952;10.292;2023-07-20T03:52:24;100755.72;;;14.21
65316;BMP280;51920;53.952;10.292;2023-07-20T03:54:50;100753.41;;;14.19
65316;BMP280;51920;53.952;10.292;2023-07-20T03:57:20;100759.63;;;14.20
65316;BMP280;51920;53.952;10.292;2023-07-20T03:59:47;100756.13;;;14.19
65316;BMP280;51920;53.952;10.292;2023-07-20T04:02:14;100758.13;;;14.15
65316;BMP280;51920;53.952;10.292;2023-07-20T04:04:41;100761.22;;;14.17
65316;BMP280;51920;53.952;10.292;2023-07-20T04:07:08;100761.69;;;14.12
65316;BMP280;51920;53.952;10.292;2023-07-20T04:09:35;100772.94;;;14.14
65316;BMP280;51920;53.952;10.292;2023-07-20T04:12:01;100758.97;;;14.12
65316;BMP280;51920;53.952;10.292;2023-07-20T04:14:30;100764.47;;;14.05
65316;BMP280;51920;53.952;10.292;2023-07-20T04:16:56;100759.75;;;14.09
65316;BMP280;51920;53.952;10.292;2023-07-20T04:19:23;100766.72;;;14.10
65316;BMP280;51920;53.952;10.292;2023-07-20T04:21:50;100765.56;;;14.11
65316;BMP280;51920;53.952;10.292;2023-07-20T04:24:16;100760.88;;;14.11
65316;BMP280;51920;53.952;10.292;2023-07-20T04:26:43;100765.09;;;14.20
65316;BMP280;51920;53.952;10.292;2023-07-20T04:29:09;100771.69;;;14.22
65316;BMP280;51920;53.952;10.292;2023-07-20T04:31:39;100781.34;;;14.30
65316;BMP280;51920;53.952;10.292;2023-07-20T04:34:07;100776.94;;;14.44
65316;BMP280;51920;53.952;10.292;2023-07-20T04:36:35;100779.13;;;14.56
65316;BMP280;51920;53.952;10.292;2023-07-20T04:39:03;100787.19;;;14.70
65316;BMP280;51920;53.952;10.292;2023-07-20T04:41:36;100770.81;;;14.70
65316;BMP280;51920;53.952;10.292;2023-07-20T04:44:03;100777.66;;;14.82
65316;BMP280;51920;53.952;10.292;2023-07-20T04:46:30;100788.38;;;15.00
65316;BMP280;51920;53.952;10.292;2023-07-20T04:48:58;100786.00;;;15.02
65316;BMP280;51920;53.952;10.292;2023-07-20T04:51:27;100774.19;;;15.12
65316;BMP280;51920;53.952;10.292;2023-07-20T04:53:55;100781.38;;;15.30
65316;BMP280;51920;53.952;10.292;2023-07-20T04:56:24;100780.84;;;15.38
65316;BMP280;51920;53.952;10.292;2023-07-20T04:58:52;100786.16;;;15.49
65316;BMP280;51920;53.952;10.292;2023-07-20T05:01:19;100791.56;;;15.53
65316;BMP280;51920;53.952;10.292;2023-07-20T05:03:45;100784.00;;;15.60
65316;BMP280;51920;53.952;10.292;2023-07-20T05:06:12;100783.56;;;15.65
65316;BMP280;51920;53.952;10.292;2023-07-20T05:08:39;100782.50;;;15.83
65316;BMP280;51920;53.952;10.292;2023-07-20T05:11:05;100788.31;;;15.85
65316;BMP280;51920;53.952;10.292;2023-07-20T05:13:34;100788.34;;;16.08
65316;BMP280;51920;53.952;10.292;2023-07-20T05:16:00;100778.97;;;15.86
65316;BMP280;51920;53.952;10.292;2023-07-20T05:18:28;100781.63;;;16.13
65316;BMP280;51920;53.952;10.292;2023-07-20T05:20:54;100779.56;;;16.21
65316;BMP280;51920;53.952;10.292;2023-07-20T05:23:21;100788.94;;;16.40
65316;BMP280;51920;53.952;10.292;2023-07-20T05:25:56;100792.44;;;16.64
65316;BMP280;51920;53.952;10.292;2023-07-20T05:28:23;100787.19;;;16.69
65316;BMP280;51920;53.952;10.292;2023-07-20T05:30:50;100786.34;;;16.92
65316;BMP280;51920;53.952;10.292;2023-07-20T05:33:21;100785.47;;;17.15
65316;BMP280;51920;53.952;10.292;2023-07-20T05:35:48;100788.13;;;17.19
65316;BMP280;51920;53.952;10.292;2023-07-20T05:38:14;100783.69;;;17.25
65316;BMP280;51920;53.952;10.292;2023-07-20T05:40:41;100792.09;;;17.51
65316;BMP280;51920;53.952;10.292;2023-07-20T05:43:09;100785.09;;;17.66
65316;BMP280;51920;53.952;10.292;2023-07-20T05:45:35;100785.50;;;17.81
65316;BMP280;51920;53.952;10.292;2023-07-20T05:48:02;100788.66;;;17.96
65316;BMP280;51920;53.952;10.292;2023-07-20T05:50:29;100784.88;;;18.06
65316;BMP280;51920;53.952;10.292;2023-07-20T05:52:56;100781.28;;;18.22
65316;BMP280;51920;53.952;10.292;2023-07-20T05:55:23;100785.34;;;18.17
65316;BMP280;51920;53.952;10.292;2023-07-20T05:57:50;100779.91;;;18.30
65316;BMP280;51920;53.952;10.292;2023-07-20T06:00:17;100777.03;;;18.63
65316;BMP280;51920;53.952;10.292;2023-07-20T06:02:45;100782.16;;;18.48
65316;BMP280;51920;53.952;10.292;2023-07-20T06:05:14;100783.97;;;18.93
65316;BMP280;51920;53.952;10.292;2023-07-20T06:07:40;100794.22;;;19.05
65316;BMP280;51920;53.952;10.292;2023-07-20T06:10:07;100783.13;;;18.96
65316;BMP280;51920;53.952;10.292;2023-07-20T06:12:34;100793.88;;;19.03
65316;BMP280;51920;53.952;10.292;2023-07-20T06:15:03;100784.69;;;18.55
65316;BMP280;51920;53.952;10.292;2023-07-20T06:17:30;100784.75;;;19.06
65316;BMP280;51920;53.952;10.292;2023-07-20T06:19:56;100786.94;;;18.98
65316;BMP280;51920;53.952;10.292;2023-07-20T06:22:23;100791.00;;;19.45
65316;BMP280;51920;53.952;10.292;2023-07-20T06:24:50;100780.03;;;19.07
65316;BMP280;51920;53.952;10.292;2023-07-20T06:27:16;100790.34;;;19.15
65316;BMP280;51920;53.952;10.292;2023-07-20T06:29:43;100791.78;;;19.20
65316;BMP280;51920;53.952;10.292;2023-07-20T06:32:09;100794.63;;;19.29
65316;BMP280;51920;53.952;10.292;2023-07-20T06:34:36;100796.25;;;19.52
65316;BMP280;51920;53.952;10.292;2023-07-20T06:37:04;100798.91;;;19.43
65316;BMP280;51920;53.952;10.292;2023-07-20T06:39:31;100790.88;;;19.48
65316;BMP280;51920;53.952;10.292;2023-07-20T06:42:00;100792.50;;;18.69
65316;BMP280;51920;53.952;10.292;2023-07-20T06:44:29;100790.34;;;18.06
65316;BMP280;51920;53.952;10.292;2023-07-20T06:46:56;100799.06;;;18.59
65316;BMP280;51920;53.952;10.292;2023-07-20T06:49:27;100799.13;;;18.85
65316;BMP280;51920;53.952;10.292;2023-07-20T06:51:54;100804.88;;;18.48
65316;BMP280;51920;53.952;10.292;2023-07-20T06:54:21;100802.56;;;18.47
65316;BMP280;51920;53.952;10.292;2023-07-20T06:56:49;100800.66;;;18.98
65316;BMP280;51920;53.952;10.292;2023-07-20T06:59:35;100806.75;;;19.19
65316;BMP280;51920;53.952;10.292;2023-07-20T07:02:06;100798.13;;;19.42
65316;BMP280;51920;53.952;10.292;2023-07-20T07:04:39;100799.53;;;19.60
65316;BMP280;51920;53.952;10.292;2023-07-20T07:07:05;100794.66;;;19.16
65316;BMP280;51920;53.952;10.292;2023-07-20T07:09:32;100794.53;;;18.81
65316;BMP280;51920;53.952;10.292;2023-07-20T07:11:59;100803.06;;;18.58
65316;BMP280;51920;53.952;10.292;2023-07-20T07:14:26;100807.25;;;18.88
65316;BMP280;51920;53.952;10.292;2023-07-20T07:16:53;100797.16;;;18.98
65316;BMP280;51920;53.952;10.292;2023-07-20T07:19:23;100798.16;;;19.55
65316;BMP280;51920;53.952;10.292;2023-07-20T07:21:50;100807.81;;;19.94
65316;BMP280;51920;53.952;10.292;2023-07-20T07:24:17;100793.81;;;20.24
65316;BMP280;51920;53.952;10.292;2023-07-20T07:26:44;100793.50;;;20.22
65316;BMP280;51920;53.952;10.292;2023-07-20T07:29:11;100797.13;;;19.97
65316;BMP280;51920;53.952;10.292;2023-07-20T07:31:38;100798.59;;;19.02
65316;BMP280;51920;53.952;10.292;2023-07-20T07:34:04;100800.47;;;19.31
65316;BMP280;51920;53.952;10.292;2023-07-20T07:36:33;100796.03;;;19.34
65316;BMP280;51920;53.952;10.292;2023-07-20T07:39:00;100799.97;;;19.58
65316;BMP280;51920;53.952;10.292;2023-07-20T07:41:47;100803.44;;;20.06
65316;BMP280;51920;53.952;10.292;2023-07-20T07:44:14;100798.25;;;19.86
65316;BMP280;51920;53.952;10.292;2023-07-20T07:46:40;100792.72;;;20.43
65316;BMP280;51920;53.952;10.292;2023-07-20T07:49:08;100805.97;;;20.35
65316;BMP280;51920;53.952;10.292;2023-07-20T07:51:34;100799.69;;;19.91
65316;BMP280;51920;53.952;10.292;2023-07-20T07:54:01;100804.09;;;20.10
65316;BMP280;51920;53.952;10.292;2023-07-20T07:56:28;100800.44;;;20.35
65316;BMP280;51920;53.952;10.292;2023-07-20T07:58:54;100806.59;;;20.17
65316;BMP280;51920;53.952;10.292;2023-07-20T08:01:21;100795.44;;;20.65
65316;BMP280;51920;53.952;10.292;2023-07-20T08:03:50;100795.50;;;21.33
65316;BMP280;51920;53.952;10.292;2023-07-20T08:06:17;100793.09;;;20.54
65316;BMP280;51920;53.952;10.292;2023-07-20T08:08:44;100796.06;;;20.69
65316;BMP280;51920;53.952;10.292;2023-07-20T08:11:10;100799.81;;;20.31
65316;BMP280;51920;53.952;10.292;2023-07-20T08:13:37;100796.56;;;20.77
65316;BMP280;51920;53.952;10.292;2023-07-20T08:16:04;100793.44;;;20.12
65316;BMP280;51920;53.952;10.292;2023-07-20T08:18:31;100794.38;;;20.72
65316;BMP280;51920;53.952;10.292;2023-07-20T08:20:57;100803.59;;;21.09
65316;BMP280;51920;53.952;10.292;2023-07-20T08:23:24;100796.16;;;20.56
65316;BMP280;51920;53.952;10.292;2023-07-20T08:25:51;100803.25;;;20.45
65316;BMP280;51920;53.952;10.292;2023-07-20T08:28:17;100806.50;;;21.05
65316;BMP280;51920;53.952;10.292;2023-07-20T08:30:46;100798.28;;;21.42
65316;BMP280;51920;53.952;10.292;2023-07-20T08:33:14;100800.47;;;21.66
65316;BMP280;51920;53.952;10.292;2023-07-20T08:35:41;100789.38;;;21.20
65316;BMP280;51920;53.952;10.292;2023-07-20T08:38:07;100799.31;;;20.46
65316;BMP280;51920;53.952;10.292;2023-07-20T08:40:40;100810.41;;;20.33
65316;BMP280;51920;53.952;10.292;2023-07-20T08:43:08;100809.97;;;20.97
65316;BMP280;51920;53.952;10.292;2023-07-20T08:45:36;100798.78;;;21.59
65316;BMP280;51920;53.952;10.292;2023-07-20T08:48:05;100806.75;;;22.12
65316;BMP280;51920;53.952;10.292;2023-07-20T08:50:33;100798.00;;;22.14
65316;BMP280;51920;53.952;10.292;2023-07-20T08:53:00;100805.97;;;21.93
65316;BMP280;51920;53.952;10.292;2023-07-20T08:55:29;100804.13;;;21.44
65316;BMP280;51920;53.952;10.292;2023-07-20T08:58:00;100799.31;;;20.77
65316;BMP280;51920;53.952;10.292;2023-07-20T09:00:27;100792.53;;;20.15
65316;BMP280;51920;53.952;10.292;2023-07-20T09:02:57;100804.50;;;19.52
65316;BMP280;51920;53.952;10.292;2023-07-20T09:05:24;100806.47;;;19.52
65316;BMP280;51920;53.952;10.292;2023-07-20T09:07:52;100803.97;;;19.32
65316;BMP280;51920;53.952;10.292;2023-07-20T09:10:23;100811.56;;;19.02
65316;BMP280;51920;53.952;10.292;2023-07-20T09:12:50;100815.06;;;19.02
65316;BMP280;51920;53.952;10.292;2023-07-20T09:15:19;100825.63;;;19.04
65316;BMP280;51920;53.952;10.292;2023-07-20T09:17:47;100820.78;;;18.95
65316;BMP280;51920;53.952;10.292;2023-07-20T09:20:16;100826.47;;;19.52
65316;BMP280;51920;53.952;10.292;2023-07-20T09:22:44;100823.56;;;20.38
65316;BMP280;51920;53.952;10.292;2023-07-20T09:25:15;100818.66;;;20.95
65316;BMP280;51920;53.952;10.292;2023-07-20T09:27:44;100815.50;;;21.06
65316;BMP280;51920;53.952;10.292;2023-07-20T09:30:11;100816.31;;;20.53
65316;BMP280;51920;53.952;10.292;2023-07-20T09:32:47;100819.78;;;19.88
65316;BMP280;51920;53.952;10.292;2023-07-20T09:35:18;100828.47;;;19.64
65316;BMP280;51920;53.952;10.292;2023-07-20T09:37:55;100815.81;;;19.16
65316;BMP280;51920;53.952;10.292;2023-07-20T09:40:27;100829.19;;;18.75
65316;BMP280;51920;53.952;10.292;2023-07-20T09:43:15;100836.09;;;18.67
65316;BMP280;51920;53.952;10.292;2023-07-20T09:45:45;100840.66;;;19.12
65316;BMP280;51920;53.952;10.292;2023-07-20T09:48:14;100834.31;;;19.88
65316;BMP280;51920;53.952;10.292;2023-07-20T09:50:50;100835.84;;;20.46
65316;BMP280;51920;53.952;10.292;2023-07-20T09:53:18;100831.31;;;21.15
65316;BMP280;51920;53.952;10.292;2023-07-20T09:55:47;100830.16;;;21.03
65316;BMP280;51920;53.952;10.292;2023-07-20T09:58:16;100834.94;;;21.12
65316;BMP280;51920;53.952;10.292;2023-07-20T10:00:44;100822.28;;;20.83
65316;BMP280;51920;53.952;10.292;2023-07-20T10:03:18;100826.69;;;21.12
65316;BMP280;51920;53.952;10.292;2023-07-20T10:05:54;100825.47;;;21.13
65316;BMP280;51920;53.952;10.292;2023-07-20T10:08:24;100821.34;;;20.77
65316;BMP280;51920;53.952;10.292;2023-07-20T10:10:54;100822.75;;;20.81
65316;BMP280;51920;53.952;10.292;2023-07-20T10:13:27;100841.59;;;20.39
65316;BMP280;51920;53.952;10.292;2023-07-20T10:16:02;100843.47;;;19.72
65316;BMP280;51920;53.952;10.292;2023-07-20T10:21:22;100853.31;;;19.22
65316;BMP280;51920;53.952;10.292;2023-07-20T10:23:56;100849.25;;;19.14
65316;BMP280;51920;53.952;10.292;2023-07-20T10:26:24;100841.44;;;19.38
65316;BMP280;51920;53.952;10.292;2023-07-20T10:28:51;100849.34;;;19.97
65316;BMP280;51920;53.952;10.292;2023-07-20T10:31:19;100844.34;;;20.39
65316;BMP280;51920;53.952;10.292;2023-07-20T10:33:46;100836.06;;;20.83
65316;BMP280;51920;53.952;10.292;2023-07-20T10:36:13;100842.06;;;21.31
65316;BMP280;51920;53.952;10.292;2023-07-20T10:44:01;100843.53;;;20.51
65316;BMP280;51920;53.952;10.292;2023-07-20T10:49:07;100852.06;;;18.85
65316;BMP280;51920;53.952;10.292;2023-07-20T10:51:45;100856.63;;;18.75
65316;BMP280;51920;53.952;10.292;2023-07-20T10:56:47;100856.28;;;18.31
65316;BMP280;51920;53.952;10.292;2023-07-20T10:59:35;100854.31;;;18.16
65316;BMP280;51920;53.952;10.292;2023-07-20T11:02:06;100866.00;;;18.03
65316;BMP280;51920;53.952;10.292;2023-07-20T11:07:06;100875.44;;;17.86
65316;BMP280;51920;53.952;10.292;2023-07-20T11:09:38;100869.03;;;17.73
65316;BMP280;51920;53.952;10.292;2023-07-20T11:12:09;100873.44;;;17.70
65316;BMP280;51920;53.952;10.292;2023-07-20T11:14:41;100876.84;;;17.74
65316;BMP280;51920;53.952;10.292;2023-07-20T11:17:12;100874.38;;;17.80
65316;BMP280;51920;53.952;10.292;2023-07-20T11:19:48;100869.66;;;17.97
65316;BMP280;51920;53.952;10.292;2023-07-20T11:22:17;100875.84;;;18.01
65316;BMP280;51920;53.952;10.292;2023-07-20T11:24:44;100875.13;;;18.29
65316;BMP280;51920;53.952;10.292;2023-07-20T11:27:10;100871.78;;;18.67
65316;BMP280;51920;53.952;10.292;2023-07-20T11:29:37;100878.44;;;18.95
65316;BMP280;51920;53.952;10.292;2023-07-20T11:32:04;100855.66;;;18.82
65316;BMP280;51920;53.952;10.292;2023-07-20T11:34:32;100875.06;;;19.17
65316;BMP280;51920;53.952;10.292;2023-07-20T11:37:00;100874.28;;;19.16
65316;BMP280;51920;53.952;10.292;2023-07-20T11:39:29;100885.72;;;19.53
65316;BMP280;51920;53.952;10.292;2023-07-20T11:41:57;100861.56;;;19.48
65316;BMP280;51920;53.952;10.292;2023-07-20T11:44:26;100879.59;;;19.23
65316;BMP280;51920;53.952;10.292;2023-07-20T11:47:05;100870.91;;;18.54
65316;BMP280;51920;53.952;10.292;2023-07-20T11:49:35;100856.75;;;18.43
65316;BMP280;51920;53.952;10.292;2023-07-20T11:52:07;100881.50;;;18.68
65316;BMP280;51920;53.952;10.292;2023-07-20T11:54:35;100872.72;;;18.31
65316;BMP280;51920;53.952;10.292;2023-07-20T11:57:03;100863.09;;;18.69
65316;BMP280;51920;53.952;10.292;2023-07-20T11:59:29;100849.84;;;18.80
65316;BMP280;51920;53.952;10.292;2023-07-20T12:02:01;100849.44;;;19.07
65316;BMP280;51920;53.952;10.292;2023-07-20T12:04:31;100838.75;;;18.96
65316;BMP280;51920;53.952;10.292;2023-07-20T12:06:58;100844.72;;;19.20
65316;BMP280;51920;53.952;10.292;2023-07-20T12:09:25;100854.06;;;19.61
65316;BMP280;51920;53.952;10.292;2023-07-20T12:11:55;100868.56;;;20.09
65316;BMP280;51920;53.952;10.292;2023-07-20T12:14:25;100847.38;;;19.97
65316;BMP280;51920;53.952;10.292;2023-07-20T12:16:53;100851.31;;;20.31
65316;BMP280;51920;53.952;10.292;2023-07-20T12:19:25;100863.38;;;20.46
65316;BMP280;51920;53.952;10.292;2023-07-20T12:21:57;100841.34;;;20.46
65316;BMP280;51920;53.952;10.292;2023-07-20T12:24:26;100871.84;;;20.39
65316;BMP280;51920;53.952;10.292;2023-07-20T12:26:56;100855.94;;;19.64
65316;BMP280;51920;53.952;10.292;2023-07-20T12:29:24;100838.03;;;19.47
65316;BMP280;51920;53.952;10.292;2023-07-20T12:31:51;100869.78;;;19.61
65316;BMP280;51920;53.952;10.292;2023-07-20T12:34:17;100867.47;;;19.46
65316;BMP280;51920;53.952;10.292;2023-07-20T12:36:44;100875.59;;;19.37
65316;BMP280;51920;53.952;10.292;2023-07-20T12:39:10;100859.47;;;19.39
65316;BMP280;51920;53.952;10.292;2023-07-20T12:41:37;100864.50;;;19.15
65316;BMP280;51920;53.952;10.292;2023-07-20T12:44:04;100908.03;;;18.88
65316;BMP280;51920;53.952;10.292;2023-07-20T12:46:32;100896.03;;;17.90
65316;BMP280;51920;53.952;10.292;2023-07-20T12:49:01;100901.09;;;17.76
65316;BMP280;51920;53.952;10.292;2023-07-20T12:51:28;100887.97;;;17.67
65316;BMP280;51920;53.952;10.292;2023-07-20T12:53:54;100894.84;;;17.59
65316;BMP280;51920;53.952;10.292;2023-07-20T12:56:21;100870.13;;;17.42
65316;BMP280;51920;53.952;10.292;2023-07-20T12:58:51;100873.91;;;17.49
65316;BMP280;51920;53.952;10.292;2023-07-20T13:01:17;100871.09;;;17.36
65316;BMP280;51920;53.952;10.292;2023-07-20T13:03:44;100883.38;;;17.97
65316;BMP280;51920;53.952;10.292;2023-07-20T13:06:13;100880.25;;;18.27
65316;BMP280;51920;53.952;10.292;2023-07-20T13:08:43;100874.25;;;18.32
65316;BMP280;51920;53.952;10.292;2023-07-20T13:11:10;100866.00;;;18.49
65316;BMP280;51920;53.952;10.292;2023-07-20T13:13:36;100880.25;;;18.44
65316;BMP280;51920;53.952;10.292;2023-07-20T13:16:03;100890.84;;;18.42
65316;BMP280;51920;53.952;10.292;2023-07-20T13:18:30;100904.41;;;18.32
65316;BMP280;51920;53.952;10.292;2023-07-20T13:20:56;100892.81;;;18.41
65316;BMP280;51920;53.952;10.292;2023-07-20T13:23:28;100911.78;;;18.03
65316;BMP280;51920;53.952;10.292;2023-07-20T13:25:54;100917.69;;;17.68
65316;BMP280;51920;53.952;10.292;2023-07-20T13:28:21;100918.38;;;17.56
65316;BMP280;51920;53.952;10.292;2023-07-20T13:30:47;100909.69;;;17.41
65316;BMP280;51920;53.952;10.292;2023-07-20T13:33:14;100903.59;;;17.14
65316;BMP280;51920;53.952;10.292;2023-07-20T13:35:43;100899.19;;;17.00
65316;BMP280;51920;53.952;10.292;2023-07-20T13:38:13;100905.38;;;17.04
65316;BMP280;51920;53.952;10.292;2023-07-20T13:40:40;100901.22;;;17.16
65316;BMP280;51920;53.952;10.292;2023-07-20T13:43:06;100892.50;;;17.21
65316;BMP280;51920;53.952;10.292;2023-07-20T13:45:33;100884.28;;;17.21
65316;BMP280;51920;53.952;10.292;2023-07-20T13:47:59;100890.66;;;17.34
65316;BMP280;51920;53.952;10.292;2023-07-20T13:50:27;100879.41;;;17.49
65316;BMP280;51920;53.952;10.292;2023-07-20T13:53:05;100882.94;;;17.65
65316;BMP280;51920;53.952;10.292;2023-07-20T13:55:35;100884.22;;;17.77
65316;BMP280;51920;53.952;10.292;2023-07-20T13:58:06;100889.88;;;18.03
65316;BMP280;51920;53.952;10.292;2023-07-20T14:00:32;100872.72;;;18.31
65316;BMP280;51920;53.952;10.292;2023-07-20T14:03:00;100864.91;;;18.59
65316;BMP280;51920;53.952;10.292;2023-07-20T14:05:30;100867.22;;;18.90
65316;BMP280;51920;53.952;10.292;2023-07-20T14:07:59;100866.19;;;18.84
65316;BMP280;51920;53.952;10.292;2023-07-20T14:10:26;100875.50;;;18.73
65316;BMP280;51920;53.952;10.292;2023-07-20T14:12:53;100879.72;;;18.91
65316;BMP280;51920;53.952;10.292;2023-07-20T14:15:19;100873.59;;;19.12